Stations météo

réclame
Mon MeteoGroup
Punta Galea Golf, Espagne (8059): Température de l'air & dewpoint: 14.10.2018 19:00:00 - 20.10.2018 19:00:00 (CEST)Punta Galea Golf, Espagne (8059): Vitesse du vent & gusts: 14.10.2018 19:00:00 - 20.10.2018 19:00:00 (CEST)Punta Galea Golf, Espagne (8059): Direction du vent: 14.10.2018 19:00:00 - 20.10.2018 19:00:00 (CEST)Punta Galea Golf, Espagne (8059): reduced air pressure: 14.10.2018 19:00:00 - 20.10.2018 19:00:00 (CEST)Punta Galea Golf, Espagne (8059): Quantités de précipitations: 14.10.2018 19:00:00 - 20.10.2018 19:00:00 (CEST)
Date & Time tt [°C] td [°C] ff [km/h] ff [knt] fx [km/h] fx [knt] dd ppp [hPa] rr [mm]
20.10.2018 19:00:00 16,8 15,8 1 1 4 2 S 1024,7 0,0
20.10.2018 18:00:00 16,7 15,7 2 1 8 4 NE 1024,9 0,0
20.10.2018 17:00:00 17,1 16,0 1 1 8 4 NNE 1024,9 0,0
20.10.2018 16:00:00 17,1 15,8 4 2 8 5 NNE 1025,2 0,0
20.10.2018 15:00:00 17,0 15,5 3 2 8 5 NNE 1025,6 0,0
20.10.2018 14:00:00 16,7 15,4 5 3 10 5 WNW 1026,0 -
20.10.2018 13:00:00 16,5 15,5 4 2 11 6 W 1026,5 0,0
20.10.2018 12:00:00 16,4 15,4 5 3 10 5 WNW 1026,4 0,0
20.10.2018 11:00:00 15,8 14,8 3 2 6 3 NW 1026,1 0,0
20.10.2018 10:00:00 15,6 14,6 2 1 6 4 SSE 1025,6 0,0
20.10.2018 09:00:00 15,4 14,2 1 1 11 6 WNW 1024,6 0,0
20.10.2018 08:00:00 15,4 14,2 5 3 10 6 W 1023,9 -
20.10.2018 07:00:00 15,3 14,1 5 3 10 5 NW 1023,6 0,0
20.10.2018 06:00:00 15,1 13,9 1 0 19 10 W 1023,7 0,0
20.10.2018 05:00:00 15,8 14,7 9 5 16 9 WNW 1023,3 0,0
20.10.2018 04:00:00 15,6 14,4 7 4 16 9 WNW 1023,3 0,0
20.10.2018 03:00:00 15,7 14,6 5 3 16 8 WNW 1023,4 0,0
20.10.2018 02:00:00 15,6 14,8 12 7 24 13 WNW 1023,3 -
20.10.2018 01:00:00 15,4 14,8 10 6 18 10 WNW 1022,8 0,0
20.10.2018 00:00:00 15,5 14,9 8 4 21 12 W 1023,2 0,0
19.10.2018 23:00:00 15,7 15,1 11 6 21 11 WNW 1023,7 0,0
19.10.2018 22:00:00 15,8 15,2 9 5 19 10 NW 1022,6 0,0
19.10.2018 21:00:00 15,9 15,3 7 4 12 6 WNW 1022,4 0,0
19.10.2018 20:00:00 - - - - - - - - -
19.10.2018 19:00:00 16,1 15,3 5 3 10 5 WNW 1020,9 0,0
19.10.2018 18:00:00 16,5 15,9 4 2 13 7 NNW 1020,7 0,0
19.10.2018 17:00:00 16,5 15,9 8 5 16 9 WNW 1020,8 0,0
19.10.2018 16:00:00 17,0 16,2 9 5 17 9 WNW 1020,3 0,0
19.10.2018 15:00:00 17,3 16,5 10 6 22 12 WNW 1020,5 0,0
19.10.2018 14:00:00 16,9 16,1 13 7 24 13 NW 1020,7 -
19.10.2018 13:00:00 16,8 15,8 10 5 21 11 NW 1020,9 0,0
19.10.2018 12:00:00 17,3 16,3 4 2 14 7 NW 1020,3 0,0
19.10.2018 11:00:00 16,7 15,9 7 4 19 10 WNW 1020,2 0,0
19.10.2018 10:00:00 16,0 15,3 10 6 18 10 WNW 1019,4 0,0
19.10.2018 09:00:00 15,8 15,2 9 5 16 9 WNW 1018,9 0,0
19.10.2018 08:00:00 15,8 15,2 9 5 21 11 WNW 1018,1 -
19.10.2018 07:00:00 15,7 15,1 11 6 22 12 WNW 1018,5 0,0
19.10.2018 06:00:00 15,7 15,1 10 6 21 12 WNW 1018,4 0,0
19.10.2018 05:00:00 15,7 15,1 15 8 23 13 WNW 1018,6 0,0
19.10.2018 04:00:00 15,6 15,0 9 5 22 12 WNW 1018,4 0,0
19.10.2018 03:00:00 15,7 15,1 12 7 21 11 WNW 1018,4 0,0
19.10.2018 02:00:00 15,7 15,1 10 6 21 11 WNW 1018,3 -
19.10.2018 01:00:00 15,8 15,2 13 7 23 12 WNW 1018,2 0,0
19.10.2018 00:00:00 15,7 15,3 13 7 24 13 WNW 1018,1 0,0
18.10.2018 23:00:00 15,8 15,3 11 6 22 12 WNW 1018,0 0,0
18.10.2018 22:00:00 15,7 15,3 11 6 25 13 WNW 1018,0 0,0
18.10.2018 21:00:00 16,0 15,5 13 7 24 13 WNW 1017,5 0,0
18.10.2018 20:00:00 16,0 15,5 12 7 22 12 WNW 1017,4 -
18.10.2018 19:00:00 15,8 15,3 10 6 18 10 WNW 1016,9 0,0
18.10.2018 18:00:00 16,0 15,5 9 5 15 8 WNW 1016,6 0,1
18.10.2018 17:00:00 15,9 15,4 6 4 16 9 W 1016,8 0,4
18.10.2018 16:00:00 15,9 15,4 10 5 20 11 NW 1016,8 0,0
18.10.2018 15:00:00 15,4 14,9 14 7 22 12 WNW 1016,7 1,3
18.10.2018 14:00:00 15,5 15,0 13 7 20 11 WNW 1017,0 -
18.10.2018 13:00:00 15,8 15,3 10 5 16 9 WNW 1017,5 0,0
18.10.2018 12:00:00 15,7 15,3 7 4 16 9 WNW 1017,5 0,0
18.10.2018 11:00:00 15,5 15,0 8 5 14 8 WNW 1017,0 0,0
18.10.2018 10:00:00 15,2 14,7 7 4 13 7 WNW 1017,3 0,0
18.10.2018 09:00:00 15,0 14,5 5 3 10 6 W 1016,8 0,0
18.10.2018 08:00:00 15,0 14,3 4 2 9 5 WNW 1016,1 -
18.10.2018 07:00:00 15,0 14,3 4 2 8 4 WNW 1016,0 0,0
18.10.2018 06:00:00 14,8 14,1 4 2 8 4 WNW 1015,7 0,0
18.10.2018 05:00:00 14,8 14,1 2 1 4 2 WSW 1015,6 0,0
18.10.2018 04:00:00 14,2 13,5 0 0 4 2 N 1015,7 0,0
18.10.2018 03:00:00 15,0 14,2 1 0 8 5 SE 1016,2 0,0
18.10.2018 02:00:00 14,9 14,1 4 2 11 6 ENE 1016,1 -
18.10.2018 01:00:00 15,1 14,3 4 2 7 4 WSW 1016,6 0,0
18.10.2018 00:00:00 15,3 14,5 3 1 5 3 W 1016,2 0,1
17.10.2018 23:00:00 15,1 14,3 0 0 5 3 NE 1016,3 0,0
17.10.2018 22:00:00 14,9 14,1 1 0 5 3 WNW 1016,1 0,0
17.10.2018 21:00:00 14,6 13,4 4 2 12 7 S 1015,8 0,0
17.10.2018 20:00:00 15,4 13,9 5 3 12 6 ESE 1015,1 -
17.10.2018 19:00:00 16,6 14,8 6 3 13 7 E 1014,1 0,0
17.10.2018 18:00:00 17,7 15,3 9 5 18 10 NE 1013,9 0,0
17.10.2018 17:00:00 18,1 15,3 11 6 21 11 ENE 1014,4 0,0
17.10.2018 16:00:00 18,7 15,3 10 6 20 11 NE 1014,9 0,0
17.10.2018 15:00:00 18,6 15,9 10 5 18 10 NE 1015,5 0,0
17.10.2018 14:00:00 17,9 15,3 11 6 20 11 NE 1016,5 -
17.10.2018 13:00:00 17,0 14,6 8 4 12 6 NE 1017,4 0,0
17.10.2018 12:00:00 16,8 13,8 5 3 15 8 SSE 1018,3 0,0
17.10.2018 11:00:00 15,1 13,9 6 4 15 8 SE 1018,7 0,0
17.10.2018 10:00:00 13,1 12,6 6 3 10 5 SSE 1019,1 0,0
17.10.2018 09:00:00 11,4 11,0 5 3 9 5 SSE 1019,1 0,0
17.10.2018 08:00:00 11,1 10,6 5 3 13 7 SE 1019,1 -
17.10.2018 07:00:00 11,7 11,2 6 3 13 7 SSE 1019,1 0,0
17.10.2018 06:00:00 11,5 11,0 7 4 14 8 S 1019,3 0,0
17.10.2018 05:00:00 11,4 11,0 8 5 14 8 S 1019,3 0,0
17.10.2018 04:00:00 11,3 10,9 7 4 11 6 S 1020,0 0,0
17.10.2018 03:00:00 12,0 11,6 8 4 11 6 SSE 1020,3 0,0
17.10.2018 02:00:00 12,5 11,9 8 4 10 6 SSE 1020,3 -
17.10.2018 01:00:00 12,7 11,9 4 2 8 4 S 1020,7 0,0
17.10.2018 00:00:00 13,1 12,4 6 3 8 4 S 1020,9 0,0
16.10.2018 23:00:00 13,5 12,7 4 2 7 4 S 1020,9 0,0
16.10.2018 22:00:00 14,0 13,3 3 2 5 3 ESE 1020,6 0,0
16.10.2018 21:00:00 14,4 13,3 0 0 7 4 SE 1020,3 0,0
16.10.2018 20:00:00 15,3 14,1 3 2 8 5 NE 1020,2 -
16.10.2018 19:00:00 16,0 14,9 6 3 10 5 NE 1019,6 0,0
16.10.2018 18:00:00 16,7 15,4 6 3 11 6 NNE 1019,4 0,0
16.10.2018 17:00:00 17,3 15,6 8 5 15 8 NNE 1019,0 0,0
16.10.2018 16:00:00 17,4 15,5 5 3 10 6 NNE 1019,0 0,0
16.10.2018 15:00:00 17,4 15,1 6 3 11 6 NNE 1018,9 0,0
16.10.2018 14:00:00 16,9 14,5 5 3 9 5 NNE 1019,2 -
16.10.2018 13:00:00 17,1 14,5 4 2 8 4 WNW 1018,8 0,0
16.10.2018 12:00:00 17,0 14,6 4 2 11 6 ESE 1018,4 0,0
16.10.2018 11:00:00 15,0 13,6 8 4 13 7 SSE 1018,0 0,0
16.10.2018 10:00:00 13,1 12,3 8 4 13 7 SSE 1017,6 0,0
16.10.2018 09:00:00 12,5 11,9 8 4 12 7 SSE 1017,0 0,0
16.10.2018 08:00:00 12,3 11,7 8 4 11 6 SSE 1016,4 -
16.10.2018 07:00:00 12,0 11,2 7 4 12 6 SSE 1015,7 0,0
16.10.2018 06:00:00 12,5 11,9 7 4 10 5 S 1015,6 0,0
16.10.2018 05:00:00 12,4 11,8 6 3 11 6 SSE 1014,8 0,0
16.10.2018 04:00:00 12,5 11,9 6 4 11 6 SSE 1014,4 0,0
16.10.2018 03:00:00 12,5 11,7 6 4 10 6 SSE 1014,0 0,0
16.10.2018 02:00:00 12,9 12,1 5 3 7 4 SSW 1013,5 -
16.10.2018 01:00:00 13,2 12,4 5 3 10 6 SSE 1013,2 0,0
16.10.2018 00:00:00 13,8 12,8 6 3 9 5 S 1012,7 0,0
15.10.2018 23:00:00 13,9 12,6 5 3 8 5 SSE 1012,4 0,0
15.10.2018 22:00:00 14,4 13,0 4 2 13 7 S 1011,9 0,0
15.10.2018 21:00:00 14,7 13,0 5 3 10 5 SE 1011,4 0,0
15.10.2018 20:00:00 15,2 12,5 5 3 11 6 SE 1010,0 -
15.10.2018 19:00:00 16,8 12,5 4 2 16 9 ENE 1009,0 0,0
15.10.2018 18:00:00 18,4 12,6 8 4 16 9 NE 1008,0 0,0
15.10.2018 17:00:00 18,8 12,5 11 6 19 10 NE 1007,9 0,0
15.10.2018 16:00:00 19,5 12,0 10 5 18 10 NE 1007,3 0,0
15.10.2018 15:00:00 19,2 9,0 6 3 16 9 NNE 1007,7 0,0
15.10.2018 14:00:00 19,5 7,8 5 3 19 10 SSE 1007,9 -
15.10.2018 13:00:00 18,1 9,7 9 5 22 12 SSE 1007,6 0,0
15.10.2018 12:00:00 16,2 11,6 9 5 22 12 SSE 1007,3 0,0
15.10.2018 11:00:00 13,9 10,9 10 6 21 12 SSE 1007,6 0,0
15.10.2018 10:00:00 13,1 10,8 10 5 20 11 SSE 1007,9 0,0
15.10.2018 09:00:00 11,3 10,4 8 5 18 10 SSE 1008,3 0,0
15.10.2018 08:00:00 10,6 9,8 9 5 21 11 SSE 1008,4 -
15.10.2018 07:00:00 10,8 9,9 9 5 15 8 S 1008,7 0,0
15.10.2018 06:00:00 11,1 10,2 8 4 13 7 SSE 1009,1 0,0
15.10.2018 05:00:00 11,5 10,3 7 4 10 6 S 1009,4 0,0
15.10.2018 04:00:00 12,7 10,3 3 2 9 5 SSW 1009,7 0,0
15.10.2018 03:00:00 14,0 9,4 3 2 16 9 SW 1010,7 0,0
15.10.2018 02:00:00 14,2 10,2 10 5 28 15 WNW 1010,7 -
15.10.2018 01:00:00 14,1 11,8 11 6 28 15 WNW 1011,2 0,0
15.10.2018 00:00:00 14,6 12,3 11 6 26 14 WNW 1011,2 0,0
14.10.2018 23:00:00 14,7 11,9 11 6 24 13 W 1010,9 0,0
14.10.2018 22:00:00 14,5 11,2 11 6 25 14 W 1010,7 0,0
14.10.2018 21:00:00 14,4 10,0 6 4 23 13 W 1010,9 0,0
14.10.2018 20:00:00 14,3 10,5 9 5 22 12 WNW 1010,8 -
14.10.2018 19:00:00 14,0 10,6 11 6 22 12 W 1010,4 0,0

tt = Température de l'air
td = dewpoint
ff = Vitesse du vent
fx = gusts
dd = Direction du vent
ppp = reduced air pressure
rr = Quantités de précipitations

stations d'obs. à proximité